createdAt,value
2022-09-07T00:00:23.498Z,99957.22
2022-09-07T00:02:50.009Z,99958.34
2022-09-07T00:05:16.546Z,99961.59
2022-09-07T00:07:42.973Z,99962.72
2022-09-07T00:10:09.668Z,99968.00
2022-09-07T00:12:36.065Z,99964.09
2022-09-07T00:15:04.157Z,99959.63
2022-09-07T00:17:30.588Z,99943.59
2022-09-07T00:19:57.004Z,99948.97
2022-09-07T00:22:23.433Z,99950.75
2022-09-07T00:24:49.828Z,99946.88
2022-09-07T00:27:16.258Z,99945.34
2022-09-07T00:29:42.807Z,99941.59
2022-09-07T00:32:09.303Z,99938.56
2022-09-07T00:34:35.716Z,99933.13
2022-09-07T00:37:02.206Z,99936.19
2022-09-07T00:39:28.937Z,99927.41
2022-09-07T00:41:55.447Z,99928.09
2022-09-07T00:44:43.772Z,99916.13
2022-09-07T00:47:19.021Z,99919.75
2022-09-07T00:49:50.483Z,99923.38
2022-09-07T00:52:20.383Z,99924.09
2022-09-07T00:54:52.661Z,99921.72
2022-09-07T00:57:19.796Z,99928.41
2022-09-07T00:59:50.491Z,99940.66
2022-09-07T01:02:18.008Z,99937.03
2022-09-07T01:04:47.839Z,99941.34
2022-09-07T01:07:14.379Z,99945.38
2022-09-07T01:09:42.966Z,99947.88
2022-09-07T01:12:09.515Z,99956.38
2022-09-07T01:14:44.354Z,99968.91
2022-09-07T01:17:39.518Z,99978.53
2022-09-07T01:20:36.203Z,99985.53
2022-09-07T01:23:26.222Z,99988.59
2022-09-07T01:26:21.038Z,100011.16
2022-09-07T01:28:53.588Z,100027.41
2022-09-07T01:31:38.807Z,100029.25
2022-09-07T01:34:18.301Z,100020.63
2022-09-07T01:37:10.926Z,100033.56
2022-09-07T01:39:47.465Z,100030.47
2022-09-07T01:42:18.578Z,100018.09
2022-09-07T01:44:49.968Z,100028.66
2022-09-07T01:47:23.013Z,100016.00
2022-09-07T01:50:00.246Z,100020.59
2022-09-07T01:52:36.439Z,100018.34
2022-09-07T01:55:17.890Z,100016.69
2022-09-07T01:57:57.934Z,100014.88
2022-09-07T02:00:24.810Z,100022.81
2022-09-07T02:02:53.842Z,100038.53
2022-09-07T02:05:40.337Z,100035.88
2022-09-07T02:08:28.605Z,100024.34
2022-09-07T02:11:01.427Z,100019.75
2022-09-07T02:13:41.402Z,100032.31
2022-09-07T02:16:15.185Z,100022.56
2022-09-07T02:18:46.548Z,100027.59
2022-09-07T02:21:17.807Z,100029.22
2022-09-07T02:23:50.279Z,100023.94
2022-09-07T02:26:20.691Z,100022.97
2022-09-07T02:28:47.582Z,100030.78
2022-09-07T02:31:14.807Z,100030.78
2022-09-07T02:33:41.894Z,100031.75
2022-09-07T02:36:09.609Z,100008.63
2022-09-07T02:38:36.474Z,100003.50
2022-09-07T02:41:04.829Z,100004.31
2022-09-07T02:43:32.396Z,100016.84
2022-09-07T02:46:12.782Z,100017.34
2022-09-07T02:49:01.466Z,100017.69
2022-09-07T02:51:46.566Z,100022.31
2022-09-07T02:54:31.778Z,100018.72
2022-09-07T02:57:18.187Z,100016.94
2022-09-07T03:00:02.674Z,100022.88
2022-09-07T03:02:41.512Z,100038.44
2022-09-07T03:05:26.216Z,100034.13
2022-09-07T03:08:04.292Z,100030.66
2022-09-07T03:10:31.821Z,100023.00
2022-09-07T03:12:58.383Z,100014.38
2022-09-07T03:15:26.862Z,100021.63
2022-09-07T03:17:53.724Z,100019.53
2022-09-07T03:20:21.006Z,100013.00
2022-09-07T03:22:49.456Z,100014.94
2022-09-07T03:25:16.392Z,100008.97
2022-09-07T03:27:42.867Z,100009.81
2022-09-07T03:30:11.101Z,100004.25
2022-09-07T03:32:38.890Z,100002.56
2022-09-07T03:35:07.286Z,100005.91
2022-09-07T03:37:36.676Z,99995.34
2022-09-07T03:40:05.584Z,99999.66
2022-09-07T03:42:32.214Z,100000.50
2022-09-07T03:44:58.654Z,99998.28
2022-09-07T03:47:25.140Z,100003.13
2022-09-07T03:49:51.762Z,100005.91
2022-09-07T03:52:18.428Z,100001.91
2022-09-07T03:54:44.848Z,99997.31
2022-09-07T03:57:11.751Z,99997.59
2022-09-07T03:59:38.168Z,99988.81
2022-09-07T04:02:04.663Z,99993.69
2022-09-07T04:04:31.159Z,99993.81
2022-09-07T04:06:57.761Z,99992.84
2022-09-07T04:09:24.358Z,99998.81
2022-09-07T04:11:50.757Z,99992.84
2022-09-07T04:14:17.860Z,99993.41
2022-09-07T04:16:45.488Z,99996.47
2022-09-07T04:19:12.395Z,100003.97
2022-09-07T04:21:39.210Z,100004.66
2022-09-07T04:24:05.882Z,100000.22
2022-09-07T04:26:34.548Z,100012.16
2022-09-07T04:29:02.735Z,100019.63
2022-09-07T04:31:29.259Z,100015.03
2022-09-07T04:33:56.311Z,100017.22
2022-09-07T04:36:24.776Z,100019.63
2022-09-07T04:38:59.788Z,100026.25
2022-09-07T04:41:27.432Z,100021.94
2022-09-07T04:43:56.646Z,100024.84
2022-09-07T04:46:25.779Z,100024.72
2022-09-07T04:48:55.017Z,100023.31
2022-09-07T04:51:23.179Z,100025.53
2022-09-07T04:53:51.627Z,100028.41
2022-09-07T04:56:19.474Z,100035.06
2022-09-07T04:58:46.467Z,100027.84
2022-09-07T05:01:17.556Z,100024.78
2022-09-07T05:03:44.128Z,100028.16
2022-09-07T05:06:11.154Z,100030.56
2022-09-07T05:08:43.270Z,100034.88
2022-09-07T05:11:11.319Z,100030.44
2022-09-07T05:13:38.431Z,100028.56
2022-09-07T05:16:20.016Z,100034.41
2022-09-07T05:18:58.278Z,100028.88
2022-09-07T05:21:30.166Z,100026.22
2022-09-07T05:23:58.159Z,100032.59
2022-09-07T05:26:27.103Z,100031.47
2022-09-07T05:31:40.460Z,100044.47
2022-09-07T05:36:53.217Z,100048.19
2022-09-07T05:39:21.124Z,100056.22
2022-09-07T05:41:47.924Z,100051.09
2022-09-07T05:47:00.760Z,100049.44
2022-09-07T05:49:27.176Z,100060.94
2022-09-07T05:51:53.704Z,100057.19
2022-09-07T05:54:20.104Z,100054.31
2022-09-07T05:56:46.825Z,100057.91
2022-09-07T05:59:13.306Z,100048.59
2022-09-07T06:01:39.753Z,100056.69
2022-09-07T06:04:06.356Z,100060.63
2022-09-07T06:06:36.189Z,100058.63
2022-09-07T06:09:02.893Z,100057.72
2022-09-07T06:11:29.308Z,100057.28
2022-09-07T06:13:55.910Z,100066.47
2022-09-07T06:16:22.797Z,100060.22
2022-09-07T06:18:50.136Z,100062.91
2022-09-07T06:21:22.435Z,100070.13
2022-09-07T06:23:50.346Z,100071.53
2022-09-07T06:26:17.671Z,100074.31
2022-09-07T06:28:49.217Z,100080.28
2022-09-07T06:31:19.450Z,100081.66
2022-09-07T06:33:47.674Z,100075.28
2022-09-07T06:36:19.298Z,100081.38
2022-09-07T06:38:46.964Z,100087.94
2022-09-07T06:44:01.666Z,100078.16
2022-09-07T06:49:14.525Z,100084.81
2022-09-07T06:51:41.008Z,100085.13
2022-09-07T06:56:53.831Z,100082.41
2022-09-07T06:59:20.271Z,100083.13
2022-09-07T07:01:46.709Z,100079.03
2022-09-07T07:04:13.759Z,100088.78
2022-09-07T07:06:40.483Z,100094.50
2022-09-07T07:09:08.459Z,100091.00
2022-09-07T07:11:37.587Z,100094.50
2022-09-07T07:14:04.457Z,100095.19
2022-09-07T07:16:31.527Z,100098.38
2022-09-07T07:18:58.123Z,100088.25
2022-09-07T07:21:24.582Z,100095.06
2022-09-07T07:23:52.828Z,100097.00
2022-09-07T07:26:26.760Z,100103.81
2022-09-07T07:29:03.282Z,100098.91
2022-09-07T07:31:33.154Z,100102.78
2022-09-07T07:33:59.703Z,100103.31
2022-09-07T07:36:27.237Z,100106.09
2022-09-07T07:44:17.349Z,100098.44
2022-09-07T07:46:44.155Z,100115.41
2022-09-07T07:49:10.574Z,100111.91
2022-09-07T07:54:23.431Z,100123.81
2022-09-07T07:56:50.006Z,100122.13
2022-09-07T07:59:16.383Z,100125.00
2022-09-07T08:01:43.793Z,100123.16
2022-09-07T08:04:10.358Z,100126.28
2022-09-07T08:06:37.752Z,100123.56
2022-09-07T08:09:04.152Z,100124.16
2022-09-07T08:11:31.153Z,100129.31
2022-09-07T08:14:00.171Z,100130.66
2022-09-07T08:16:26.653Z,100133.38
2022-09-07T08:18:53.630Z,100136.00
2022-09-07T08:21:20.003Z,100141.94
2022-09-07T08:23:46.466Z,100136.81
2022-09-07T08:26:12.859Z,100138.66
2022-09-07T08:28:41.906Z,100152.41
2022-09-07T08:31:10.963Z,100153.91
2022-09-07T08:33:38.429Z,100154.91
2022-09-07T08:36:14.095Z,100149.69
2022-09-07T08:38:41.270Z,100145.06
2022-09-07T08:41:46.796Z,100151.09
2022-09-07T08:44:20.391Z,100147.13
2022-09-07T08:47:00.460Z,100154.97
2022-09-07T08:50:00.524Z,100157.50
2022-09-07T08:52:32.874Z,100148.66
2022-09-07T08:55:12.695Z,100144.69
2022-09-07T08:57:44.184Z,100147.94
2022-09-07T09:00:14.305Z,100153.38
2022-09-07T09:02:44.286Z,100149.53
2022-09-07T09:05:22.884Z,100152.19
2022-09-07T09:08:20.095Z,100157.69
2022-09-07T09:11:02.853Z,100151.41
2022-09-07T09:13:41.416Z,100147.16
2022-09-07T09:16:35.525Z,100152.38
2022-09-07T09:19:15.407Z,100151.63
2022-09-07T09:21:42.980Z,100134.63
2022-09-07T09:24:16.169Z,100143.00
2022-09-07T09:26:47.887Z,100141.16
2022-09-07T09:29:20.479Z,100143.44
2022-09-07T09:31:47.070Z,100128.34
2022-09-07T09:34:19.719Z,100137.72
2022-09-07T09:36:53.982Z,100136.41
2022-09-07T09:39:37.103Z,100130.91
2022-09-07T09:42:16.757Z,100134.91
2022-09-07T09:44:44.503Z,100134.16
2022-09-07T09:47:30.266Z,100130.69
2022-09-07T09:49:59.500Z,100132.81
2022-09-07T09:52:30.499Z,100120.63
2022-09-07T09:55:17.287Z,100120.66
2022-09-07T10:03:59.520Z,100106.78
2022-09-07T10:06:27.835Z,100103.31
2022-09-07T10:09:02.078Z,100098.56
2022-09-07T10:14:47.233Z,100100.56
2022-09-07T10:17:31.290Z,100113.31
2022-09-07T10:20:15.338Z,100114.06
2022-09-07T10:22:53.832Z,100110.53
2022-09-07T10:25:34.313Z,100103.28
2022-09-07T10:28:02.576Z,100097.78
2022-09-07T10:30:37.826Z,100098.34
2022-09-07T10:33:14.293Z,100105.56
2022-09-07T10:36:07.114Z,100096.25
2022-09-07T10:38:40.937Z,100095.69
2022-09-07T10:41:10.359Z,100095.19
2022-09-07T10:43:44.305Z,100093.69
2022-09-07T10:47:12.371Z,100094.34
2022-09-07T10:50:21.882Z,100083.88
2022-09-07T10:52:38.751Z,100085.50
2022-09-07T10:55:09.885Z,100078.66
2022-09-07T10:57:52.810Z,100074.13
2022-09-07T11:00:21.578Z,100074.78
2022-09-07T11:03:28.154Z,100079.19
2022-09-07T11:06:10.662Z,100070.97
2022-09-07T11:12:01.944Z,100062.75
2022-09-07T11:14:36.517Z,100059.59
2022-09-07T11:17:13.463Z,100046.22
2022-09-07T11:20:08.427Z,100042.56
2022-09-07T11:23:13.456Z,100045.06
2022-09-07T11:25:58.618Z,100042.19
2022-09-07T11:32:03.233Z,100043.31
2022-09-07T11:34:35.854Z,100037.44
2022-09-07T11:37:25.378Z,100042.53
2022-09-07T11:40:03.600Z,100041.41
2022-09-07T11:42:49.849Z,100035.69
2022-09-07T11:45:23.063Z,100043.75
2022-09-07T11:47:55.806Z,100032.22
2022-09-07T11:50:23.610Z,100036.75
2022-09-07T11:53:00.095Z,100036.38
2022-09-07T11:55:31.381Z,100028.75
2022-09-07T11:58:25.523Z,100034.56
2022-09-07T12:00:51.826Z,100026.06
2022-09-07T12:03:24.197Z,100026.06
2022-09-07T12:06:19.858Z,100023.97
2022-09-07T12:09:15.691Z,100020.88
2022-09-07T12:12:03.886Z,100017.41
2022-09-07T12:14:42.847Z,100012.31
2022-09-07T12:17:37.748Z,100009.56
2022-09-07T12:20:26.112Z,100007.53
2022-09-07T12:23:05.407Z,100007.38
2022-09-07T12:25:34.039Z,100000.41
2022-09-07T12:28:01.177Z,100008.31
2022-09-07T12:30:29.054Z,100003.63
2022-09-07T12:32:56.972Z,99983.09
2022-09-07T12:35:30.099Z,99996.78
2022-09-07T12:37:57.797Z,99995.66
2022-09-07T12:40:27.413Z,99989.25
2022-09-07T12:43:12.332Z,99991.16
2022-09-07T12:45:38.642Z,99987.00
2022-09-07T12:48:10.925Z,99979.47
2022-09-07T12:50:58.800Z,99969.16
2022-09-07T12:53:35.498Z,99974.84
2022-09-07T12:56:24.155Z,99968.22
2022-09-07T12:58:59.804Z,99981.97
2022-09-07T13:01:32.031Z,99971.31
2022-09-07T13:04:23.087Z,99980.56
2022-09-07T13:07:02.318Z,99976.09
2022-09-07T13:09:37.050Z,99980.75
2022-09-07T13:15:35.369Z,99973.19
2022-09-07T13:18:03.567Z,99970.81
2022-09-07T13:20:34.861Z,99977.19
2022-09-07T13:23:24.734Z,99965.53
2022-09-07T13:25:54.323Z,99963.56
2022-09-07T13:28:41.449Z,99963.56
2022-09-07T13:31:17.433Z,99964.13
2022-09-07T13:33:53.828Z,99967.94
2022-09-07T13:36:45.268Z,99957.88
2022-09-07T13:39:15.745Z,99956.13
2022-09-07T13:41:48.882Z,99956.94
2022-09-07T13:44:25.590Z,99954.97
2022-09-07T13:47:06.647Z,99956.31
2022-09-07T13:49:56.062Z,99960.34
2022-09-07T13:52:29.800Z,99959.38
2022-09-07T13:55:08.000Z,99949.41
2022-09-07T13:57:49.602Z,99947.50
2022-09-07T14:00:17.902Z,99945.41
2022-09-07T14:02:44.508Z,99951.66
2022-09-07T14:05:17.376Z,99944.81
2022-09-07T14:07:45.858Z,99936.84
2022-09-07T14:10:22.262Z,99928.66
2022-09-07T14:12:55.096Z,99930.47
2022-09-07T14:15:23.145Z,99927.53
2022-09-07T14:17:59.941Z,99927.97
2022-09-07T14:20:26.507Z,99915.66
2022-09-07T14:22:53.638Z,99913.22
2022-09-07T14:25:22.719Z,99906.03
2022-09-07T14:27:49.810Z,99915.69
2022-09-07T14:30:19.236Z,99910.09
2022-09-07T14:32:47.731Z,99907.66
2022-09-07T14:35:17.446Z,99903.16
2022-09-07T14:37:46.027Z,99894.75
2022-09-07T14:40:16.408Z,99895.84
2022-09-07T14:42:43.134Z,99899.34
2022-09-07T14:45:16.985Z,99894.63
2022-09-07T14:47:46.157Z,99902.84
2022-09-07T14:50:41.435Z,99896.44
2022-09-07T14:56:09.945Z,99895.41
2022-09-07T14:58:36.478Z,99885.41
2022-09-07T15:04:17.316Z,99872.41
2022-09-07T15:07:01.801Z,99877.44
2022-09-07T15:09:38.862Z,99876.16
2022-09-07T15:12:27.217Z,99873.97
2022-09-07T15:15:11.028Z,99866.41
2022-09-07T15:17:44.993Z,99869.09
2022-09-07T15:20:34.946Z,99880.13
2022-09-07T15:23:03.989Z,99875.72
2022-09-07T15:25:31.507Z,99885.69
2022-09-07T15:27:58.399Z,99876.22
2022-09-07T15:30:26.074Z,99887.50
2022-09-07T15:32:53.867Z,99895.41
2022-09-07T15:35:20.300Z,99893.03
2022-09-07T15:38:04.679Z,99887.69
2022-09-07T15:40:56.345Z,99882.81
2022-09-07T15:43:28.304Z,99886.94
2022-09-07T15:45:54.911Z,99875.09
2022-09-07T15:48:25.429Z,99882.00
2022-09-07T15:51:00.981Z,99887.00
2022-09-07T15:56:16.344Z,99897.34
2022-09-07T15:58:43.723Z,99909.66
2022-09-07T16:03:58.662Z,99903.91
2022-09-07T16:06:26.443Z,99913.53
2022-09-07T16:08:53.615Z,99921.16
2022-09-07T16:11:25.650Z,99932.44
2022-09-07T16:13:57.372Z,99925.63
2022-09-07T16:17:25.741Z,99930.38
2022-09-07T16:19:14.376Z,99930.56
2022-09-07T16:21:41.515Z,99920.84
2022-09-07T16:24:09.065Z,99916.59
2022-09-07T16:26:35.551Z,99903.47
2022-09-07T16:29:02.107Z,99890.00
2022-09-07T16:31:29.219Z,99869.91
2022-09-07T16:33:55.723Z,99858.69
2022-09-07T16:36:25.662Z,99872.06
2022-09-07T16:38:56.974Z,99879.94
2022-09-07T16:41:29.156Z,99895.63
2022-09-07T16:43:56.185Z,99896.34
2022-09-07T16:46:25.724Z,99897.16
2022-09-07T16:48:52.922Z,99897.53
2022-09-07T16:51:21.385Z,99888.41
2022-09-07T16:53:49.369Z,99882.25
2022-09-07T16:56:18.806Z,99882.47
2022-09-07T16:58:48.164Z,99882.81
2022-09-07T17:01:17.398Z,99873.19
2022-09-07T17:03:44.730Z,99872.53
2022-09-07T17:06:13.304Z,99862.22
2022-09-07T17:08:40.691Z,99857.56
2022-09-07T17:11:09.399Z,99862.69
2022-09-07T17:13:37.724Z,99862.19
2022-09-07T17:16:16.363Z,99867.50
2022-09-07T17:21:35.668Z,99854.19
2022-09-07T17:24:04.357Z,99854.69
2022-09-07T17:26:32.133Z,99860.84
2022-09-07T17:29:00.903Z,99867.13
2022-09-07T17:36:43.559Z,99881.41
2022-09-07T17:39:18.797Z,99868.94
2022-09-07T17:41:47.562Z,99884.03
2022-09-07T17:44:14.198Z,99897.69
2022-09-07T17:46:40.579Z,99907.97
2022-09-07T17:49:08.693Z,99920.75
2022-09-07T17:51:36.016Z,99926.91
2022-09-07T17:54:09.627Z,99934.09
2022-09-07T17:56:37.007Z,99931.97
2022-09-07T18:01:50.731Z,99943.78
2022-09-07T18:04:17.422Z,99947.09
2022-09-07T18:06:43.913Z,99945.28
2022-09-07T18:09:11.086Z,99932.53
2022-09-07T18:11:46.379Z,99926.25
2022-09-07T18:14:15.129Z,99898.25
2022-09-07T18:16:43.323Z,99883.91
2022-09-07T18:19:11.916Z,99875.97
2022-09-07T18:21:42.946Z,99870.59
2022-09-07T18:24:19.025Z,99859.09
2022-09-07T18:26:50.926Z,99854.91
2022-09-07T18:29:28.629Z,99856.19
2022-09-07T18:31:57.017Z,99882.00
2022-09-07T18:34:23.526Z,99906.66
2022-09-07T18:36:50.645Z,99925.59
2022-09-07T18:39:17.465Z,99928.81
2022-09-07T18:41:43.885Z,99923.66
2022-09-07T18:46:56.940Z,99922.13
2022-09-07T18:49:24.612Z,99902.06
2022-09-07T18:54:38.037Z,99877.03
2022-09-07T18:57:04.451Z,99869.84
2022-09-07T18:59:30.914Z,99868.72
2022-09-07T19:02:01.533Z,99861.56
2022-09-07T19:07:17.808Z,99843.50
2022-09-07T19:09:44.223Z,99855.59
2022-09-07T19:12:10.638Z,99859.22
2022-09-07T19:14:37.103Z,99862.97
2022-09-07T19:17:03.646Z,99865.03
2022-09-07T19:19:30.245Z,99866.59
2022-09-07T19:21:57.846Z,99867.00
2022-09-07T19:24:25.663Z,99870.72
2022-09-07T19:26:54.697Z,99863.19
2022-09-07T19:29:23.602Z,99857.91
2022-09-07T19:32:05.477Z,99849.28
2022-09-07T19:34:35.794Z,99848.16
2022-09-07T19:37:03.255Z,99847.03
2022-09-07T19:39:29.800Z,99831.81
2022-09-07T19:41:56.480Z,99812.75
2022-09-07T19:44:22.904Z,99798.16
2022-09-07T19:46:49.421Z,99789.16
2022-09-07T19:49:16.318Z,99778.06
2022-09-07T19:51:43.373Z,99772.25
2022-09-07T19:54:11.822Z,99772.78
2022-09-07T19:56:40.525Z,99777.09
2022-09-07T19:59:07.088Z,99779.28
2022-09-07T20:01:35.094Z,99776.09
2022-09-07T20:04:06.963Z,99775.63
2022-09-07T20:06:36.674Z,99768.09
2022-09-07T20:09:03.196Z,99759.47
2022-09-07T20:11:29.817Z,99753.50
2022-09-07T20:13:57.050Z,99757.56
2022-09-07T20:16:24.652Z,99752.56
2022-09-07T20:18:51.403Z,99753.38
2022-09-07T20:21:20.775Z,99748.81
2022-09-07T20:23:48.274Z,99748.81
2022-09-07T20:26:17.336Z,99746.16
2022-09-07T20:28:43.864Z,99743.63
2022-09-07T20:31:15.097Z,99736.16
2022-09-07T20:33:42.770Z,99731.56
2022-09-07T20:36:12.293Z,99718.06
2022-09-07T20:38:50.464Z,99714.84
2022-09-07T20:41:29.002Z,99704.28
2022-09-07T20:43:56.751Z,99712.06
2022-09-07T20:46:23.276Z,99713.59
2022-09-07T20:48:49.673Z,99714.28
2022-09-07T20:51:20.846Z,99703.88
2022-09-07T20:53:48.573Z,99705.38
2022-09-07T20:56:18.013Z,99698.94
2022-09-07T20:58:45.978Z,99706.56
2022-09-07T21:01:15.917Z,99705.75
2022-09-07T21:03:49.379Z,99706.28
2022-09-07T21:06:16.952Z,99705.44
2022-09-07T21:08:44.395Z,99711.25
2022-09-07T21:11:22.270Z,99712.69
2022-09-07T21:13:55.855Z,99716.69
2022-09-07T21:16:22.488Z,99718.50
2022-09-07T21:18:53.193Z,99718.34
2022-09-07T21:21:20.637Z,99719.19
2022-09-07T21:23:47.963Z,99721.56
2022-09-07T21:26:14.723Z,99725.19
2022-09-07T21:28:41.132Z,99730.75
2022-09-07T21:31:08.998Z,99730.91
2022-09-07T21:33:37.253Z,99732.72
2022-09-07T21:36:05.479Z,99733.13
2022-09-07T21:38:32.080Z,99734.78
2022-09-07T21:40:58.731Z,99742.88
2022-09-07T21:43:25.238Z,99736.44
2022-09-07T21:45:51.649Z,99737.81
2022-09-07T21:48:18.038Z,99739.88
2022-09-07T21:50:46.724Z,99735.81
2022-09-07T21:53:13.279Z,99736.81
2022-09-07T21:55:39.687Z,99740.59
2022-09-07T21:58:06.060Z,99737.22
2022-09-07T22:00:32.514Z,99740.72
2022-09-07T22:02:58.962Z,99735.41
2022-09-07T22:05:25.538Z,99729.84
2022-09-07T22:07:51.971Z,99727.19
2022-09-07T22:10:18.374Z,99722.06
2022-09-07T22:12:44.819Z,99719.69
2022-09-07T22:15:11.260Z,99723.53
2022-09-07T22:17:37.624Z,99726.38
2022-09-07T22:20:04.295Z,99734.03
2022-09-07T22:22:30.648Z,99739.97
2022-09-07T22:24:57.028Z,99731.66
2022-09-07T22:27:23.386Z,99734.59
2022-09-07T22:29:49.787Z,99737.25
2022-09-07T22:32:16.151Z,99744.63
2022-09-07T22:34:42.548Z,99748.00
2022-09-07T22:37:09.910Z,99766.69
2022-09-07T22:39:36.436Z,99787.41
2022-09-07T22:42:02.806Z,99803.56
2022-09-07T22:44:29.988Z,99813.09
2022-09-07T22:46:57.519Z,99812.53
2022-09-07T22:49:23.958Z,99806.66
2022-09-07T22:51:50.418Z,99812.81
2022-09-07T22:54:16.790Z,99799.34
2022-09-07T22:56:43.337Z,99797.22
2022-09-07T22:59:10.400Z,99801.28
2022-09-07T23:01:37.482Z,99796.84
2022-09-07T23:04:05.036Z,99792.25
2022-09-07T23:06:37.191Z,99785.59
2022-09-07T23:09:10.240Z,99784.88
2022-09-07T23:11:36.709Z,99776.81
2022-09-07T23:14:06.474Z,99767.53
2022-09-07T23:16:32.922Z,99770.31
2022-09-07T23:19:00.544Z,99756.13
2022-09-07T23:21:28.227Z,99750.28
2022-09-07T23:23:57.328Z,99747.50
2022-09-07T23:26:25.935Z,99749.19
2022-09-07T23:28:53.715Z,99741.81
2022-09-07T23:31:20.990Z,99748.91
2022-09-07T23:33:47.732Z,99739.47
2022-09-07T23:36:14.620Z,99727.97
2022-09-07T23:38:41.094Z,99723.78
2022-09-07T23:41:07.450Z,99724.75
2022-09-07T23:43:35.115Z,99722.69
2022-09-07T23:46:01.639Z,99717.28
2022-09-07T23:48:29.066Z,99707.44
2022-09-07T23:50:55.469Z,99701.72
2022-09-07T23:53:22.350Z,99702.81
2022-09-07T23:55:53.048Z,99694.78
2022-09-07T23:58:21.680Z,99682.28
